Alpine Persefone — A8MS7 — position and weather

sailwx.info

Track history (hours):
 
Tides and Currents Weather Stations Pressure Air Temp Water Temp Dewpoint Dewpoint Depression Visibility Wind Speed Wind Dir Waves Ship Positions

Alpine Persefone

Last reported at 2017-Oct-16 13:45 UTC. Time now 2017-Oct-23 00:52 UTC.
Position N 01°15' E 104°04'.

Length 226 m; draft 14 m.

Type: Tanker. MMSI: 636013411.

Date/timePositionNaut miles runAvg speedWind from/ knotsBaromVisibWave heightAir tempDewpointWater temp
2017-Oct-16 13:45N 01°15' E 104°04'2 2.0
2017-Oct-16 12:42N 01°15' E 104°02'1 2.2
2017-Oct-16 12:24N 01°15' E 104°01'1 2.0
2017-Oct-16 11:59N 01°14' E 104°00'1 1.9
2017-Oct-16 11:30N 01°14' E 103°60'5 6.4
2017-Oct-16 10:41N 01°15' E 103°54'0 0.0
2017-Oct-16 10:26N 01°15' E 103°54'0 0.0
2017-Oct-16 09:54N 01°15' E 103°54'0 0.0
2017-Oct-16 07:49N 01°15' E 103°54'7 6.3
2017-Oct-16 06:44N 01°13' E 103°48'0 1.5
2017-Oct-16 06:26N 01°13' E 103°48'1 1.2
2017-Oct-16 05:56N 01°14' E 103°47'1 1.3
2017-Oct-16 05:30N 01°14' E 103°47'1 1.3
2017-Oct-16 05:00N 01°15' E 103°46'1 1.3
2017-Oct-16 04:29N 01°15' E 103°46'1 1.5
2017-Oct-16 03:59N 01°15' E 103°45'1 1.8
2017-Oct-16 03:12N 01°15' E 103°44'1 1.8
2017-Oct-16 02:49N 01°14' E 103°43'1 1.7
2017-Oct-16 02:30N 01°14' E 103°42'1223.8
2017-Oct-16 02:00N 01°15' E 103°54'0 0.6
2017-Oct-16 01:22N 01°15' E 103°54'0 0.0
2017-Oct-16 00:55N 01°15' E 103°54'0 0.0
2017-Oct-16 00:25N 01°15' E 103°54'0 0.1
2017-Oct-15 23:46N 01°15' E 103°54'0 0.1
2017-Oct-15 23:16N 01°15' E 103°54'0 0.2
2017-Oct-15 22:58N 01°15' E 103°54'0 0.0
2017-Oct-15 22:25N 01°15' E 103°54'0 0.1
2017-Oct-15 21:55N 01°15' E 103°54'0 0.0
2017-Oct-15 21:25N 01°15' E 103°54'0 0.0
2017-Oct-15 20:55N 01°15' E 103°54'0 0.0
2017-Oct-15 20:28N 01°15' E 103°54'0 0.2
2017-Oct-15 19:58N 01°15' E 103°54'1 3.1
2017-Oct-15 19:30N 01°14' E 103°53'4 7.4
2017-Oct-15 19:00N 01°12' E 103°50'4 7.0
2017-Oct-15 18:30N 01°14' E 103°47'3 6.0
2017-Oct-15 18:00N 01°15' E 103°44'3 5.4
2017-Oct-15 17:30N 01°15' E 103°41'0 0.2
2017-Oct-15 16:55N 01°15' E 103°41'0 0.0
2017-Oct-15 16:28N 01°15' E 103°41'0 0.0
2017-Oct-15 15:58N 01°15' E 103°41'0 0.0
2017-Oct-15 15:25N 01°15' E 103°41'0 0.0
2017-Oct-15 13:49N 01°15' E 103°41'0 0.0
2017-Oct-15 13:28N 01°15' E 103°41'0 0.0
2017-Oct-15 12:52N 01°15' E 103°41'0 0.0
2017-Oct-15 12:28N 01°15' E 103°41'0 0.0
2017-Oct-15 11:58N 01°15' E 103°41'0 0.0
2017-Oct-15 11:28N 01°15' E 103°41'0 0.0
2017-Oct-15 10:49N 01°15' E 103°41'0 0.0
2017-Oct-15 10:19N 01°15' E 103°41'0 0.0
2017-Oct-15 09:40N 01°15' E 103°41'0 0.0
2017-Oct-15 09:16N 01°15' E 103°41'0 0.0
2017-Oct-15 07:25N 01°15' E 103°41'0 0.0
2017-Oct-15 06:40N 01°15' E 103°41'0 0.0
2017-Oct-15 06:13N 01°15' E 103°41'0 0.0
2017-Oct-15 05:43N 01°15' E 103°41'0 0.0
2017-Oct-15 05:13N 01°15' E 103°41'0 0.0
2017-Oct-15 04:58N 01°15' E 103°41'0 0.0
2017-Oct-15 04:25N 01°15' E 103°41'0 0.0
2017-Oct-15 03:58N 01°15' E 103°41'0 0.0
2017-Oct-15 03:13N 01°15' E 103°41'0 0.0
2017-Oct-15 02:58N 01°15' E 103°41'0 0.0
2017-Oct-15 02:16N 01°15' E 103°41'0 0.0
2017-Oct-15 01:58N 01°15' E 103°41'0 0.0
2017-Oct-15 01:28N 01°15' E 103°41'0 0.0
2017-Oct-15 00:58N 01°15' E 103°41'0 0.0
2017-Oct-15 00:19N 01°15' E 103°41'0 0.0
2017-Oct-14 23:58N 01°15' E 103°41'0 0.0
2017-Oct-14 23:25N 01°15' E 103°41'0 0.0
2017-Oct-14 22:52N 01°15' E 103°41'0 0.0
2017-Oct-14 22:28N 01°15' E 103°41'0 0.0
2017-Oct-14 21:55N 01°15' E 103°41'0 0.0
2017-Oct-14 21:28N 01°15' E 103°41'0 0.0
2017-Oct-14 20:55N 01°15' E 103°41'0 0.0
2017-Oct-14 20:22N 01°15' E 103°41'0 0.0
2017-Oct-14 19:40N 01°15' E 103°41'0 0.0
2017-Oct-14 19:22N 01°15' E 103°41'0 0.0
2017-Oct-14 18:55N 01°15' E 103°41'0 0.0
2017-Oct-14 18:04N 01°15' E 103°41'0 0.0
2017-Oct-14 17:52N 01°15' E 103°41'0 0.0
2017-Oct-14 17:25N 01°15' E 103°41'0 0.0
2017-Oct-14 16:58N 01°15' E 103°41'0 0.0
2017-Oct-14 16:28N 01°15' E 103°41'0 0.0
2017-Oct-14 15:58N 01°15' E 103°41'0 0.0
2017-Oct-14 15:28N 01°15' E 103°41'0 0.0
2017-Oct-14 14:58N 01°15' E 103°41'0 0.0
2017-Oct-14 14:10N 01°15' E 103°41'0 0.0
2017-Oct-14 13:31N 01°15' E 103°41'0 0.0
2017-Oct-14 13:25N 01°15' E 103°41'0 0.0
2017-Oct-14 12:40N 01°15' E 103°41'0 0.0
2017-Oct-14 12:25N 01°15' E 103°41'0 0.0
2017-Oct-14 11:58N 01°15' E 103°41'0 0.0
2017-Oct-14 11:22N 01°15' E 103°41'0 0.0
2017-Oct-14 10:52N 01°15' E 103°41'0 0.0
2017-Oct-14 10:25N 01°15' E 103°41'0 0.0
2017-Oct-14 09:58N 01°15' E 103°41'0 0.0
2017-Oct-14 09:28N 01°15' E 103°41'0 0.0
2017-Oct-14 08:55N 01°15' E 103°41'0 0.0
2017-Oct-14 08:28N 01°15' E 103°41'0 0.0
2017-Oct-14 07:58N 01°15' E 103°41'0 0.0
2017-Oct-14 07:28N 01°15' E 103°41'0 0.0
2017-Oct-14 06:52N 01°15' E 103°41'0 0.0
2017-Oct-14 06:28N 01°15' E 103°41'0 0.0
2017-Oct-14 05:58N 01°15' E 103°41'0 0.0
2017-Oct-14 05:28N 01°15' E 103°41'0 0.0
2017-Oct-14 04:58N 01°15' E 103°41'0 0.0
2017-Oct-14 04:28N 01°15' E 103°41'0 0.0
2017-Oct-14 03:58N 01°15' E 103°41'0 0.0
2017-Oct-14 03:28N 01°15' E 103°41'0 0.0
2017-Oct-14 02:58N 01°15' E 103°41'0 0.0
2017-Oct-14 02:28N 01°15' E 103°41'0 0.0
2017-Oct-14 01:58N 01°15' E 103°41'0 0.0
2017-Oct-14 01:22N 01°15' E 103°41'0 0.0
2017-Oct-14 00:58N 01°15' E 103°41'0 0.0
2017-Oct-14 00:28N 01°15' E 103°41'0 0.0
2017-Oct-13 23:58N 01°15' E 103°41'0 0.0
2017-Oct-13 23:28N 01°15' E 103°41'0 0.0
2017-Oct-13 22:58N 01°15' E 103°41'0 0.0
2017-Oct-13 22:22N 01°15' E 103°41'0 0.0
2017-Oct-13 21:58N 01°15' E 103°41'0 0.0
2017-Oct-13 21:28N 01°15' E 103°41'0 0.0
2017-Oct-13 20:58N 01°15' E 103°41'0 0.0
2017-Oct-13 20:28N 01°15' E 103°41'0 0.0
2017-Oct-13 19:58N 01°15' E 103°41'0 0.0
2017-Oct-13 19:25N 01°15' E 103°41'0 0.0
2017-Oct-13 18:58N 01°15' E 103°41'0 0.0
2017-Oct-13 18:28N 01°15' E 103°41'0 0.0
2017-Oct-13 17:58N 01°15' E 103°41'0 0.0
2017-Oct-13 17:28N 01°15' E 103°41'0 0.0
2017-Oct-13 16:40N 01°15' E 103°41'0 0.0
2017-Oct-13 16:22N 01°15' E 103°41'0 0.0
2017-Oct-13 15:58N 01°15' E 103°41'0 0.0
2017-Oct-13 15:28N 01°15' E 103°41'0 0.0
2017-Oct-13 14:58N 01°15' E 103°41'0 0.0
2017-Oct-13 14:25N 01°15' E 103°41'0 0.0
2017-Oct-13 13:58N 01°15' E 103°41'0 0.0
2017-Oct-13 13:25N 01°15' E 103°41'0 0.0
2017-Oct-13 12:58N 01°15' E 103°41'0 0.0
2017-Oct-13 12:16N 01°15' E 103°41'0 0.0
2017-Oct-13 11:58N 01°15' E 103°41'0 0.0
2017-Oct-13 11:25N 01°15' E 103°41'0 0.0
2017-Oct-13 10:58N 01°15' E 103°41'0 0.0
2017-Oct-13 10:28N 01°15' E 103°41'0 0.0
2017-Oct-13 09:58N 01°15' E 103°41'0 0.0
2017-Oct-13 09:25N 01°15' E 103°41'0 0.0
2017-Oct-13 08:58N 01°15' E 103°41'0 0.0
2017-Oct-13 08:28N 01°15' E 103°41'0 0.0
2017-Oct-13 07:58N 01°15' E 103°41'0 0.0
2017-Oct-13 07:28N 01°15' E 103°41'0 0.0
2017-Oct-13 06:58N 01°15' E 103°41'0 0.0
2017-Oct-13 06:25N 01°15' E 103°41'0 0.0
2017-Oct-13 05:58N 01°15' E 103°41'0 0.0
2017-Oct-13 05:28N 01°15' E 103°41'0 0.0
2017-Oct-13 04:58N 01°15' E 103°41'0 0.0
2017-Oct-13 04:28N 01°15' E 103°41'0 0.0
2017-Oct-13 03:58N 01°15' E 103°41'0 0.0
2017-Oct-13 03:28N 01°15' E 103°41'0 0.0
2017-Oct-13 02:58N 01°15' E 103°41'0 0.0
2017-Oct-13 02:25N 01°15' E 103°41'0 0.0
2017-Oct-13 01:58N 01°15' E 103°41'0 0.0
2017-Oct-13 01:25N 01°15' E 103°41'0 0.0
2017-Oct-13 00:58N 01°15' E 103°41'0 0.0
2017-Oct-13 00:28N 01°15' E 103°41'0 0.0
2017-Oct-12 23:58N 01°15' E 103°41'0 0.0
2017-Oct-12 23:25N 01°15' E 103°41'0 0.0
2017-Oct-12 22:58N 01°15' E 103°41'0 0.0
2017-Oct-12 22:28N 01°15' E 103°41'0 0.0
2017-Oct-12 21:58N 01°15' E 103°41'0 0.0
2017-Oct-12 21:25N 01°15' E 103°41'0 0.0
2017-Oct-12 20:55N 01°15' E 103°41'0 0.0
2017-Oct-12 20:28N 01°15' E 103°41'0 0.0
2017-Oct-12 19:49N 01°15' E 103°41'0 0.0
2017-Oct-12 19:25N 01°15' E 103°41'0 0.0
2017-Oct-12 18:58N 01°15' E 103°41'0 0.0
2017-Oct-12 18:28N 01°15' E 103°41'0 0.0
2017-Oct-12 17:58N 01°15' E 103°41'0 0.0
2017-Oct-12 17:28N 01°15' E 103°41'0 0.0
2017-Oct-12 16:58N 01°15' E 103°41'0 0.0
2017-Oct-12 16:28N 01°15' E 103°41'0 0.0
2017-Oct-12 15:58N 01°15' E 103°41'0 0.0
2017-Oct-12 15:22N 01°15' E 103°41'0 0.0
2017-Oct-12 14:58N 01°15' E 103°41'0 0.0
2017-Oct-12 14:28N 01°15' E 103°41'0 0.0
2017-Oct-12 13:55N 01°15' E 103°41'0 0.0
2017-Oct-12 13:28N 01°15' E 103°41'0 0.0
2017-Oct-12 12:58N 01°15' E 103°41'0 0.0
2017-Oct-12 12:28N 01°15' E 103°41'0 0.0
2017-Oct-12 11:55N 01°15' E 103°41'0 0.0
2017-Oct-12 11:28N 01°15' E 103°41'0 0.0
2017-Oct-12 10:58N 01°15' E 103°41'0 0.0
2017-Oct-12 10:28N 01°15' E 103°41'0 0.0
2017-Oct-12 09:58N 01°15' E 103°41'0 0.0
2017-Oct-12 09:28N 01°15' E 103°41'0 0.0
2017-Oct-12 08:58N 01°15' E 103°41'0 0.0
2017-Oct-12 08:28N 01°15' E 103°41'0 0.0
2017-Oct-12 07:58N 01°15' E 103°41'0 0.0
2017-Oct-12 07:25N 01°15' E 103°41'0 0.0
2017-Oct-12 06:58N 01°15' E 103°41'0 0.0
2017-Oct-12 06:28N 01°15' E 103°41'0 0.0
2017-Oct-12 05:58N 01°15' E 103°41'0 0.0
2017-Oct-12 05:28N 01°15' E 103°41'0 0.0
2017-Oct-12 04:55N 01°15' E 103°41'0 0.0
2017-Oct-12 04:28N 01°15' E 103°41'0 0.0
2017-Oct-12 03:55N 01°15' E 103°41'0 0.0
2017-Oct-12 03:25N 01°15' E 103°41'0 0.0
2017-Oct-12 02:58N 01°15' E 103°41'0 0.0
2017-Oct-12 02:25N 01°15' E 103°41'711.7
2017-Oct-12 01:47N 01°13' E 103°49'0 0.9
2017-Oct-12 01:30N 01°13' E 103°49'0 0.6
2017-Oct-12 01:00N 01°13' E 103°49'712.7
2017-Oct-12 00:25N 01°15' E 103°41'0 0.0
2017-Oct-11 23:55N 01°15' E 103°41'0 0.0
2017-Oct-11 23:25N 01°15' E 103°41'0 0.0
2017-Oct-11 22:49N 01°15' E 103°41'817.1
2017-Oct-11 22:22N 01°13' E 103°49'0 0.2
2017-Oct-11 22:00N 01°13' E 103°49'0 0.5
2017-Oct-11 21:29N 01°13' E 103°49'0 0.7
2017-Oct-11 20:57N 01°13' E 103°49'0 0.7
2017-Oct-11 20:29N 01°12' E 103°50'0 0.5
2017-Oct-11 19:59N 01°12' E 103°50'0 0.8
2017-Oct-11 19:29N 01°12' E 103°50'1 1.3
2017-Oct-11 19:00N 01°12' E 103°51'1019.5
2017-Oct-11 18:31N 01°15' E 103°41'1 2.3
2017-Oct-11 18:00N 01°15' E 103°43'4 7.8
2017-Oct-11 17:30N 01°15' E 103°46'3 6.4
2017-Oct-11 17:01N 01°13' E 103°49'  
Track history (hours):
 
Tides and Currents Weather Stations Pressure Air Temp Water Temp Dewpoint Dewpoint Depression Visibility Wind Speed Wind Dir Waves Ship Positions

Alpine Persefone

Last reported at 2017-Oct-16 13:45 UTC. Time now 2017-Oct-23 00:52 UTC.
Position N 01°15' E 104°04'.

Length 226 m; draft 14 m.

Type: Tanker. MMSI: 636013411.

Date/timePositionNaut miles runAvg speedWind from/ knotsBaromVisibWave heightAir tempDewpointWater temp
2017-Oct-16 13:45N 01°15' E 104°04'2 2.0
2017-Oct-16 12:42N 01°15' E 104°02'1 2.2
2017-Oct-16 12:24N 01°15' E 104°01'1 2.0
2017-Oct-16 11:59N 01°14' E 104°00'1 1.9
2017-Oct-16 11:30N 01°14' E 103°60'5 6.4
2017-Oct-16 10:41N 01°15' E 103°54'0 0.0
2017-Oct-16 10:26N 01°15' E 103°54'0 0.0
2017-Oct-16 09:54N 01°15' E 103°54'0 0.0
2017-Oct-16 07:49N 01°15' E 103°54'7 6.3
2017-Oct-16 06:44N 01°13' E 103°48'0 1.5
2017-Oct-16 06:26N 01°13' E 103°48'1 1.2
2017-Oct-16 05:56N 01°14' E 103°47'1 1.3
2017-Oct-16 05:30N 01°14' E 103°47'1 1.3
2017-Oct-16 05:00N 01°15' E 103°46'1 1.3
2017-Oct-16 04:29N 01°15' E 103°46'1 1.5
2017-Oct-16 03:59N 01°15' E 103°45'1 1.8
2017-Oct-16 03:12N 01°15' E 103°44'1 1.8
2017-Oct-16 02:49N 01°14' E 103°43'1 1.7
2017-Oct-16 02:30N 01°14' E 103°42'1223.8
2017-Oct-16 02:00N 01°15' E 103°54'0 0.6
2017-Oct-16 01:22N 01°15' E 103°54'0 0.0
2017-Oct-16 00:55N 01°15' E 103°54'0 0.0
2017-Oct-16 00:25N 01°15' E 103°54'0 0.1
2017-Oct-15 23:46N 01°15' E 103°54'0 0.1
2017-Oct-15 23:16N 01°15' E 103°54'0 0.2
2017-Oct-15 22:58N 01°15' E 103°54'0 0.0
2017-Oct-15 22:25N 01°15' E 103°54'0 0.1
2017-Oct-15 21:55N 01°15' E 103°54'0 0.0
2017-Oct-15 21:25N 01°15' E 103°54'0 0.0
2017-Oct-15 20:55N 01°15' E 103°54'0 0.0
2017-Oct-15 20:28N 01°15' E 103°54'0 0.2
2017-Oct-15 19:58N 01°15' E 103°54'1 3.1
2017-Oct-15 19:30N 01°14' E 103°53'4 7.4
2017-Oct-15 19:00N 01°12' E 103°50'4 7.0
2017-Oct-15 18:30N 01°14' E 103°47'3 6.0
2017-Oct-15 18:00N 01°15' E 103°44'3 5.4
2017-Oct-15 17:30N 01°15' E 103°41'0 0.2
2017-Oct-15 16:55N 01°15' E 103°41'0 0.0
2017-Oct-15 16:28N 01°15' E 103°41'0 0.0
2017-Oct-15 15:58N 01°15' E 103°41'0 0.0
2017-Oct-15 15:25N 01°15' E 103°41'0 0.0
2017-Oct-15 13:49N 01°15' E 103°41'0 0.0
2017-Oct-15 13:28N 01°15' E 103°41'0 0.0
2017-Oct-15 12:52N 01°15' E 103°41'0 0.0
2017-Oct-15 12:28N 01°15' E 103°41'0 0.0
2017-Oct-15 11:58N 01°15' E 103°41'0 0.0
2017-Oct-15 11:28N 01°15' E 103°41'0 0.0
2017-Oct-15 10:49N 01°15' E 103°41'0 0.0
2017-Oct-15 10:19N 01°15' E 103°41'0 0.0
2017-Oct-15 09:40N 01°15' E 103°41'0 0.0
2017-Oct-15 09:16N 01°15' E 103°41'0 0.0
2017-Oct-15 07:25N 01°15' E 103°41'0 0.0
2017-Oct-15 06:40N 01°15' E 103°41'0 0.0
2017-Oct-15 06:13N 01°15' E 103°41'0 0.0
2017-Oct-15 05:43N 01°15' E 103°41'0 0.0
2017-Oct-15 05:13N 01°15' E 103°41'0 0.0
2017-Oct-15 04:58N 01°15' E 103°41'0 0.0
2017-Oct-15 04:25N 01°15' E 103°41'0 0.0
2017-Oct-15 03:58N 01°15' E 103°41'0 0.0
2017-Oct-15 03:13N 01°15' E 103°41'0 0.0
2017-Oct-15 02:58N 01°15' E 103°41'0 0.0
2017-Oct-15 02:16N 01°15' E 103°41'0 0.0
2017-Oct-15 01:58N 01°15' E 103°41'0 0.0
2017-Oct-15 01:28N 01°15' E 103°41'0 0.0
2017-Oct-15 00:58N 01°15' E 103°41'0 0.0
2017-Oct-15 00:19N 01°15' E 103°41'0 0.0
2017-Oct-14 23:58N 01°15' E 103°41'0 0.0
2017-Oct-14 23:25N 01°15' E 103°41'0 0.0
2017-Oct-14 22:52N 01°15' E 103°41'0 0.0
2017-Oct-14 22:28N 01°15' E 103°41'0 0.0
2017-Oct-14 21:55N 01°15' E 103°41'0 0.0
2017-Oct-14 21:28N 01°15' E 103°41'0 0.0
2017-Oct-14 20:55N 01°15' E 103°41'0 0.0
2017-Oct-14 20:22N 01°15' E 103°41'0 0.0
2017-Oct-14 19:40N 01°15' E 103°41'0 0.0
2017-Oct-14 19:22N 01°15' E 103°41'0 0.0
2017-Oct-14 18:55N 01°15' E 103°41'0 0.0
2017-Oct-14 18:04N 01°15' E 103°41'0 0.0
2017-Oct-14 17:52N 01°15' E 103°41'0 0.0
2017-Oct-14 17:25N 01°15' E 103°41'0 0.0
2017-Oct-14 16:58N 01°15' E 103°41'0 0.0
2017-Oct-14 16:28N 01°15' E 103°41'0 0.0
2017-Oct-14 15:58N 01°15' E 103°41'0 0.0
2017-Oct-14 15:28N 01°15' E 103°41'0 0.0
2017-Oct-14 14:58N 01°15' E 103°41'0 0.0
2017-Oct-14 14:10N 01°15' E 103°41'0 0.0
2017-Oct-14 13:31N 01°15' E 103°41'0 0.0
2017-Oct-14 13:25N 01°15' E 103°41'0 0.0
2017-Oct-14 12:40N 01°15' E 103°41'0 0.0
2017-Oct-14 12:25N 01°15' E 103°41'0 0.0
2017-Oct-14 11:58N 01°15' E 103°41'0 0.0
2017-Oct-14 11:22N 01°15' E 103°41'0 0.0
2017-Oct-14 10:52N 01°15' E 103°41'0 0.0
2017-Oct-14 10:25N 01°15' E 103°41'0 0.0
2017-Oct-14 09:58N 01°15' E 103°41'0 0.0
2017-Oct-14 09:28N 01°15' E 103°41'0 0.0
2017-Oct-14 08:55N 01°15' E 103°41'0 0.0
2017-Oct-14 08:28N 01°15' E 103°41'0 0.0
2017-Oct-14 07:58N 01°15' E 103°41'0 0.0
2017-Oct-14 07:28N 01°15' E 103°41'0 0.0
2017-Oct-14 06:52N 01°15' E 103°41'0 0.0
2017-Oct-14 06:28N 01°15' E 103°41'0 0.0
2017-Oct-14 05:58N 01°15' E 103°41'0 0.0
2017-Oct-14 05:28N 01°15' E 103°41'0 0.0
2017-Oct-14 04:58N 01°15' E 103°41'0 0.0
2017-Oct-14 04:28N 01°15' E 103°41'0 0.0
2017-Oct-14 03:58N 01°15' E 103°41'0 0.0
2017-Oct-14 03:28N 01°15' E 103°41'0 0.0
2017-Oct-14 02:58N 01°15' E 103°41'0 0.0
2017-Oct-14 02:28N 01°15' E 103°41'0 0.0
2017-Oct-14 01:58N 01°15' E 103°41'0 0.0
2017-Oct-14 01:22N 01°15' E 103°41'0 0.0
2017-Oct-14 00:58N 01°15' E 103°41'0 0.0
2017-Oct-14 00:28N 01°15' E 103°41'0 0.0
2017-Oct-13 23:58N 01°15' E 103°41'0 0.0
2017-Oct-13 23:28N 01°15' E 103°41'0 0.0
2017-Oct-13 22:58N 01°15' E 103°41'0 0.0
2017-Oct-13 22:22N 01°15' E 103°41'0 0.0
2017-Oct-13 21:58N 01°15' E 103°41'0 0.0
2017-Oct-13 21:28N 01°15' E 103°41'0 0.0
2017-Oct-13 20:58N 01°15' E 103°41'0 0.0
2017-Oct-13 20:28N 01°15' E 103°41'0 0.0
2017-Oct-13 19:58N 01°15' E 103°41'0 0.0
2017-Oct-13 19:25N 01°15' E 103°41'0 0.0
2017-Oct-13 18:58N 01°15' E 103°41'0 0.0
2017-Oct-13 18:28N 01°15' E 103°41'0 0.0
2017-Oct-13 17:58N 01°15' E 103°41'0 0.0
2017-Oct-13 17:28N 01°15' E 103°41'0 0.0
2017-Oct-13 16:40N 01°15' E 103°41'0 0.0
2017-Oct-13 16:22N 01°15' E 103°41'0 0.0
2017-Oct-13 15:58N 01°15' E 103°41'0 0.0
2017-Oct-13 15:28N 01°15' E 103°41'0 0.0
2017-Oct-13 14:58N 01°15' E 103°41'0 0.0
2017-Oct-13 14:25N 01°15' E 103°41'0 0.0
2017-Oct-13 13:58N 01°15' E 103°41'0 0.0
2017-Oct-13 13:25N 01°15' E 103°41'0 0.0
2017-Oct-13 12:58N 01°15' E 103°41'0 0.0
2017-Oct-13 12:16N 01°15' E 103°41'0 0.0
2017-Oct-13 11:58N 01°15' E 103°41'0 0.0
2017-Oct-13 11:25N 01°15' E 103°41'0 0.0
2017-Oct-13 10:58N 01°15' E 103°41'0 0.0
2017-Oct-13 10:28N 01°15' E 103°41'0 0.0
2017-Oct-13 09:58N 01°15' E 103°41'0 0.0
2017-Oct-13 09:25N 01°15' E 103°41'0 0.0
2017-Oct-13 08:58N 01°15' E 103°41'0 0.0
2017-Oct-13 08:28N 01°15' E 103°41'0 0.0
2017-Oct-13 07:58N 01°15' E 103°41'0 0.0
2017-Oct-13 07:28N 01°15' E 103°41'0 0.0
2017-Oct-13 06:58N 01°15' E 103°41'0 0.0
2017-Oct-13 06:25N 01°15' E 103°41'0 0.0
2017-Oct-13 05:58N 01°15' E 103°41'0 0.0
2017-Oct-13 05:28N 01°15' E 103°41'0 0.0
2017-Oct-13 04:58N 01°15' E 103°41'0 0.0
2017-Oct-13 04:28N 01°15' E 103°41'0 0.0
2017-Oct-13 03:58N 01°15' E 103°41'0 0.0
2017-Oct-13 03:28N 01°15' E 103°41'0 0.0
2017-Oct-13 02:58N 01°15' E 103°41'0 0.0
2017-Oct-13 02:25N 01°15' E 103°41'0 0.0
2017-Oct-13 01:58N 01°15' E 103°41'0 0.0
2017-Oct-13 01:25N 01°15' E 103°41'0 0.0
2017-Oct-13 00:58N 01°15' E 103°41'0 0.0
2017-Oct-13 00:28N 01°15' E 103°41'0 0.0
2017-Oct-12 23:58N 01°15' E 103°41'0 0.0
2017-Oct-12 23:25N 01°15' E 103°41'0 0.0
2017-Oct-12 22:58N 01°15' E 103°41'0 0.0
2017-Oct-12 22:28N 01°15' E 103°41'0 0.0
2017-Oct-12 21:58N 01°15' E 103°41'0 0.0
2017-Oct-12 21:25N 01°15' E 103°41'0 0.0
2017-Oct-12 20:55N 01°15' E 103°41'0 0.0
2017-Oct-12 20:28N 01°15' E 103°41'0 0.0
2017-Oct-12 19:49N 01°15' E 103°41'0 0.0
2017-Oct-12 19:25N 01°15' E 103°41'0 0.0
2017-Oct-12 18:58N 01°15' E 103°41'0 0.0
2017-Oct-12 18:28N 01°15' E 103°41'0 0.0
2017-Oct-12 17:58N 01°15' E 103°41'0 0.0
2017-Oct-12 17:28N 01°15' E 103°41'0 0.0
2017-Oct-12 16:58N 01°15' E 103°41'0 0.0
2017-Oct-12 16:28N 01°15' E 103°41'0 0.0
2017-Oct-12 15:58N 01°15' E 103°41'0 0.0
2017-Oct-12 15:22N 01°15' E 103°41'0 0.0
2017-Oct-12 14:58N 01°15' E 103°41'0 0.0
2017-Oct-12 14:28N 01°15' E 103°41'0 0.0
2017-Oct-12 13:55N 01°15' E 103°41'0 0.0
2017-Oct-12 13:28N 01°15' E 103°41'0 0.0
2017-Oct-12 12:58N 01°15' E 103°41'0 0.0
2017-Oct-12 12:28N 01°15' E 103°41'0 0.0
2017-Oct-12 11:55N 01°15' E 103°41'0 0.0
2017-Oct-12 11:28N 01°15' E 103°41'0 0.0
2017-Oct-12 10:58N 01°15' E 103°41'0 0.0
2017-Oct-12 10:28N 01°15' E 103°41'0 0.0
2017-Oct-12 09:58N 01°15' E 103°41'0 0.0
2017-Oct-12 09:28N 01°15' E 103°41'0 0.0
2017-Oct-12 08:58N 01°15' E 103°41'0 0.0
2017-Oct-12 08:28N 01°15' E 103°41'0 0.0
2017-Oct-12 07:58N 01°15' E 103°41'0 0.0
2017-Oct-12 07:25N 01°15' E 103°41'0 0.0
2017-Oct-12 06:58N 01°15' E 103°41'0 0.0
2017-Oct-12 06:28N 01°15' E 103°41'0 0.0
2017-Oct-12 05:58N 01°15' E 103°41'0 0.0
2017-Oct-12 05:28N 01°15' E 103°41'0 0.0
2017-Oct-12 04:55N 01°15' E 103°41'0 0.0
2017-Oct-12 04:28N 01°15' E 103°41'0 0.0
2017-Oct-12 03:55N 01°15' E 103°41'0 0.0
2017-Oct-12 03:25N 01°15' E 103°41'0 0.0
2017-Oct-12 02:58N 01°15' E 103°41'0 0.0
2017-Oct-12 02:25N 01°15' E 103°41'711.7
2017-Oct-12 01:47N 01°13' E 103°49'0 0.9
2017-Oct-12 01:30N 01°13' E 103°49'0 0.6
2017-Oct-12 01:00N 01°13' E 103°49'712.7
2017-Oct-12 00:25N 01°15' E 103°41'0 0.0
2017-Oct-11 23:55N 01°15' E 103°41'0 0.0
2017-Oct-11 23:25N 01°15' E 103°41'0 0.0
2017-Oct-11 22:49N 01°15' E 103°41'817.1
2017-Oct-11 22:22N 01°13' E 103°49'0 0.2
2017-Oct-11 22:00N 01°13' E 103°49'0 0.5
2017-Oct-11 21:29N 01°13' E 103°49'0 0.7
2017-Oct-11 20:57N 01°13' E 103°49'0 0.7
2017-Oct-11 20:29N 01°12' E 103°50'0 0.5
2017-Oct-11 19:59N 01°12' E 103°50'0 0.8
2017-Oct-11 19:29N 01°12' E 103°50'1 1.3
2017-Oct-11 19:00N 01°12' E 103°51'1019.5
2017-Oct-11 18:31N 01°15' E 103°41'1 2.3
2017-Oct-11 18:00N 01°15' E 103°43'4 7.8
2017-Oct-11 17:30N 01°15' E 103°46'3 6.4
2017-Oct-11 17:01N 01°13' E 103°49'  

Dump ship's entire track history